createdAt,value
2023-02-03T00:01:28.290Z,97562.66
2023-02-03T00:03:56.287Z,97580.59
2023-02-03T00:06:24.876Z,97570.09
2023-02-03T00:08:56.510Z,97572.19
2023-02-03T00:11:25.099Z,97575.88
2023-02-03T00:13:53.075Z,97576.16
2023-02-03T00:16:22.702Z,97576.78
2023-02-03T00:18:50.711Z,97583.84
2023-02-03T00:21:18.720Z,97579.66
2023-02-03T00:23:46.812Z,97572.34
2023-02-03T00:26:17.418Z,97573.59
2023-02-03T00:28:45.771Z,97579.19
2023-02-03T00:31:18.145Z,97581.44
2023-02-03T00:33:47.820Z,97582.50
2023-02-03T00:36:15.779Z,97578.03
2023-02-03T00:38:43.788Z,97580.72
2023-02-03T00:41:11.761Z,97582.44
2023-02-03T00:43:39.737Z,97589.31
2023-02-03T00:46:07.719Z,97594.59
2023-02-03T00:48:35.787Z,97594.69
2023-02-03T00:51:05.327Z,97598.09
2023-02-03T00:53:33.488Z,97602.44
2023-02-03T00:56:01.486Z,97604.47
2023-02-03T00:58:29.561Z,97600.63
2023-02-03T01:00:58.182Z,97600.69
2023-02-03T01:03:26.378Z,97608.88
2023-02-03T01:05:54.321Z,97603.75
2023-02-03T01:08:23.762Z,97612.69
2023-02-03T01:10:51.736Z,97610.97
2023-02-03T01:13:19.768Z,97622.81
2023-02-03T01:15:48.904Z,97619.13
2023-02-03T01:18:16.946Z,97612.00
2023-02-03T01:20:45.035Z,97617.16
2023-02-03T01:23:12.996Z,97616.84
2023-02-03T01:25:42.385Z,97613.09
2023-02-03T01:28:10.491Z,97621.94
2023-02-03T01:30:38.763Z,97624.97
2023-02-03T01:33:07.414Z,97628.19
2023-02-03T01:35:36.432Z,97632.91
2023-02-03T01:38:04.398Z,97630.03
2023-02-03T01:40:32.362Z,97636.22
2023-02-03T01:43:01.735Z,97618.94
2023-02-03T01:45:29.684Z,97620.38
2023-02-03T01:48:01.220Z,97616.19
2023-02-03T01:50:33.472Z,97619.94
2023-02-03T01:53:04.249Z,97613.03
2023-02-03T01:55:36.072Z,97605.00
2023-02-03T01:58:11.525Z,97611.78
2023-02-03T02:00:39.549Z,97606.59
2023-02-03T02:03:09.015Z,97622.69
2023-02-03T02:05:42.213Z,97624.69
2023-02-03T02:08:10.774Z,97622.91
2023-02-03T02:10:38.830Z,97627.41
2023-02-03T02:13:11.910Z,97623.28
2023-02-03T02:15:51.307Z,97626.16
2023-02-03T02:18:29.880Z,97636.44
2023-02-03T02:21:24.262Z,97639.84
2023-02-03T02:24:20.169Z,97631.78
2023-02-03T02:26:58.671Z,97635.53
2023-02-03T02:30:02.030Z,97630.38
2023-02-03T02:32:43.095Z,97627.88
2023-02-03T02:35:19.090Z,97634.84
2023-02-03T02:37:54.811Z,97637.50
2023-02-03T02:40:30.665Z,97645.34
2023-02-03T02:43:07.441Z,97635.69
2023-02-03T02:45:42.538Z,97635.06
2023-02-03T02:48:18.066Z,97638.97
2023-02-03T02:50:48.209Z,97641.22
2023-02-03T02:53:18.805Z,97643.63
2023-02-03T02:55:48.057Z,97646.03
2023-02-03T02:58:18.170Z,97644.44
2023-02-03T03:00:46.929Z,97642.66
2023-02-03T03:03:18.507Z,97641.56
2023-02-03T03:05:52.374Z,97649.03
2023-02-03T03:08:24.290Z,97641.28
2023-02-03T03:10:55.004Z,97647.72
2023-02-03T03:13:28.924Z,97663.16
2023-02-03T03:15:59.903Z,97674.25
2023-02-03T03:18:34.410Z,97677.28
2023-02-03T03:21:06.445Z,97667.53
2023-02-03T03:23:39.364Z,97675.59
2023-02-03T03:26:13.913Z,97680.19
2023-02-03T03:28:48.058Z,97683.31
2023-02-03T03:31:17.291Z,97679.75
2023-02-03T03:33:47.676Z,97689.03
2023-02-03T03:36:23.505Z,97697.53
2023-02-03T03:38:57.908Z,97698.00
2023-02-03T03:41:36.595Z,97705.31
2023-02-03T03:44:08.034Z,97708.22
2023-02-03T03:46:42.708Z,97706.97
2023-02-03T03:49:13.552Z,97707.66
2023-02-03T03:51:47.573Z,97707.03
2023-02-03T03:54:20.053Z,97699.28
2023-02-03T03:56:56.131Z,97690.88
2023-02-03T03:59:26.565Z,97681.00
2023-02-03T04:01:55.176Z,97662.09
2023-02-03T04:04:27.020Z,97667.63
2023-02-03T04:06:55.874Z,97671.88
2023-02-03T04:09:24.017Z,97672.84
2023-02-03T04:12:06.022Z,97679.97
2023-02-03T04:14:35.915Z,97691.28
2023-02-03T04:17:03.890Z,97693.59
2023-02-03T04:19:33.583Z,97693.19
2023-02-03T04:22:01.550Z,97703.41
2023-02-03T04:24:29.686Z,97692.13
2023-02-03T04:26:57.672Z,97692.47
2023-02-03T04:29:25.707Z,97705.91
2023-02-03T04:31:53.853Z,97699.59
2023-02-03T04:34:21.880Z,97699.53
2023-02-03T04:36:51.221Z,97705.31
2023-02-03T04:39:19.212Z,97702.03
2023-02-03T04:41:47.165Z,97714.31
2023-02-03T04:44:15.134Z,97706.44
2023-02-03T04:46:43.091Z,97707.63
2023-02-03T04:49:11.791Z,97707.06
2023-02-03T04:51:40.041Z,97695.84
2023-02-03T04:54:09.639Z,97682.00
2023-02-03T04:56:37.736Z,97682.97
2023-02-03T04:59:05.684Z,97672.97
2023-02-03T05:01:33.656Z,97670.09
2023-02-03T05:04:01.729Z,97671.38
2023-02-03T05:06:32.119Z,97673.91
2023-02-03T05:09:00.225Z,97670.19
2023-02-03T05:11:30.112Z,97679.41
2023-02-03T05:13:58.087Z,97673.47
2023-02-03T05:16:26.593Z,97664.00
2023-02-03T05:18:54.717Z,97661.13
2023-02-03T05:21:22.744Z,97674.06
2023-02-03T05:23:50.704Z,97671.97
2023-02-03T05:26:18.741Z,97666.03
2023-02-03T05:28:48.105Z,97676.03
2023-02-03T05:31:16.278Z,97666.38
2023-02-03T05:33:44.260Z,97665.09
2023-02-03T05:36:12.316Z,97658.66
2023-02-03T05:38:41.989Z,97661.88
2023-02-03T05:41:28.358Z,97663.50
2023-02-03T05:43:57.761Z,97668.00
2023-02-03T05:46:25.893Z,97667.84
2023-02-03T05:48:53.856Z,97659.94
2023-02-03T05:51:21.928Z,97669.63
2023-02-03T05:53:50.004Z,97673.31
2023-02-03T05:56:18.065Z,97678.00
2023-02-03T05:58:46.144Z,97673.50
2023-02-03T06:01:15.515Z,97676.72
2023-02-03T06:03:46.028Z,97673.00
2023-02-03T06:06:14.923Z,97679.28
2023-02-03T06:08:43.066Z,97677.69
2023-02-03T06:11:11.885Z,97675.25
2023-02-03T06:13:40.142Z,97677.97
2023-02-03T06:16:08.368Z,97679.91
2023-02-03T06:18:37.764Z,97683.41
2023-02-03T06:21:06.126Z,97670.81
2023-02-03T06:23:34.187Z,97662.84
2023-02-03T06:26:02.199Z,97663.91
2023-02-03T06:28:30.336Z,97655.81
2023-02-03T06:30:58.378Z,97656.75
2023-02-03T06:33:26.561Z,97668.28
2023-02-03T06:35:56.510Z,97667.91
2023-02-03T06:38:24.706Z,97668.50
2023-02-03T06:40:52.915Z,97681.38
2023-02-03T06:43:20.846Z,97690.09
2023-02-03T06:45:48.931Z,97688.16
2023-02-03T06:48:16.990Z,97694.75
2023-02-03T06:50:48.537Z,97696.63
2023-02-03T06:53:18.137Z,97692.38
2023-02-03T06:55:47.966Z,97703.50
2023-02-03T06:58:16.072Z,97705.47
2023-02-03T07:00:44.055Z,97704.50
2023-02-03T07:03:12.005Z,97701.91
2023-02-03T07:05:40.897Z,97711.44
2023-02-03T07:08:09.040Z,97715.00
2023-02-03T07:10:38.435Z,97722.13
2023-02-03T07:13:07.532Z,97725.69
2023-02-03T07:15:35.985Z,97728.09
2023-02-03T07:18:04.084Z,97732.91
2023-02-03T07:20:33.053Z,97740.00
2023-02-03T07:23:01.050Z,97737.06
2023-02-03T07:25:29.102Z,97736.91
2023-02-03T07:27:58.538Z,97743.84
2023-02-03T07:30:26.890Z,97739.94
2023-02-03T07:32:55.475Z,97746.38
2023-02-03T07:35:23.461Z,97740.88
2023-02-03T07:37:51.461Z,97744.53
2023-02-03T07:40:19.735Z,97748.22
2023-02-03T07:42:49.828Z,97749.47
2023-02-03T07:45:20.342Z,97745.81
2023-02-03T07:47:48.345Z,97742.13
2023-02-03T07:50:16.570Z,97750.06
2023-02-03T07:52:44.681Z,97742.94
2023-02-03T07:55:12.679Z,97747.00
2023-02-03T07:57:43.660Z,97739.44
2023-02-03T08:00:14.331Z,97739.72
2023-02-03T08:02:44.608Z,97743.41
2023-02-03T08:05:13.713Z,97744.66
2023-02-03T08:07:42.336Z,97740.63
2023-02-03T08:10:13.276Z,97749.38
2023-02-03T08:12:45.114Z,97747.66
2023-02-03T08:15:14.122Z,97749.59
2023-02-03T08:17:44.623Z,97754.78
2023-02-03T08:20:13.751Z,97754.09
2023-02-03T08:22:41.769Z,97759.38
2023-02-03T08:25:10.430Z,97757.31
2023-02-03T08:27:38.846Z,97755.53
2023-02-03T08:30:08.624Z,97744.53
2023-02-03T08:32:36.866Z,97741.50
2023-02-03T08:35:07.173Z,97731.03
2023-02-03T08:37:35.172Z,97734.94
2023-02-03T08:40:03.286Z,97733.78
2023-02-03T08:42:31.338Z,97729.72
2023-02-03T08:44:59.688Z,97729.19
2023-02-03T08:47:27.954Z,97734.78
2023-02-03T08:49:55.987Z,97730.63
2023-02-03T08:52:25.620Z,97728.59
2023-02-03T08:54:53.742Z,97729.16
2023-02-03T08:57:21.859Z,97734.22
2023-02-03T08:59:51.248Z,97737.09
2023-02-03T09:02:20.843Z,97735.59
2023-02-03T09:04:50.092Z,97740.13
2023-02-03T09:07:18.095Z,97733.88
2023-02-03T09:09:47.723Z,97723.00
2023-02-03T09:12:16.182Z,97734.97
2023-02-03T09:14:44.552Z,97734.34
2023-02-03T09:17:12.911Z,97734.16
2023-02-03T09:19:41.034Z,97721.03
2023-02-03T09:22:09.318Z,97727.09
2023-02-03T09:24:37.662Z,97715.34
2023-02-03T09:27:07.260Z,97710.97
2023-02-03T09:29:35.490Z,97709.38
2023-02-03T09:32:09.022Z,97705.69
2023-02-03T09:34:37.231Z,97702.38
2023-02-03T09:37:05.452Z,97705.59
2023-02-03T09:39:33.489Z,97708.72
2023-02-03T09:42:52.161Z,97709.09
2023-02-03T09:45:25.794Z,97714.34
2023-02-03T09:47:55.653Z,97713.81
2023-02-03T09:50:26.691Z,97715.69
2023-02-03T09:52:56.859Z,97711.22
2023-02-03T09:55:35.179Z,97717.25
2023-02-03T09:58:09.371Z,97715.09
2023-02-03T10:00:41.192Z,97723.13
2023-02-03T10:03:19.192Z,97725.16
2023-02-03T10:06:04.626Z,97729.38
2023-02-03T10:08:45.117Z,97736.16
2023-02-03T10:11:28.250Z,97735.34
2023-02-03T10:14:14.070Z,97726.59
2023-02-03T10:16:56.090Z,97731.16
2023-02-03T10:19:28.808Z,97720.78
2023-02-03T10:22:00.124Z,97717.22
2023-02-03T10:24:39.542Z,97720.53
2023-02-03T10:27:15.072Z,97710.34
2023-02-03T10:29:44.840Z,97710.97
2023-02-03T10:32:14.132Z,97712.94
2023-02-03T10:34:46.098Z,97725.44
2023-02-03T10:37:23.632Z,97731.00
2023-02-03T10:39:57.002Z,97726.81
2023-02-03T10:42:25.118Z,97734.84
2023-02-03T10:44:58.601Z,97732.94
2023-02-03T10:47:34.330Z,97740.44
2023-02-03T10:50:07.557Z,97728.16
2023-02-03T10:52:37.593Z,97720.09
2023-02-03T10:55:07.353Z,97716.75
2023-02-03T10:57:39.286Z,97716.00
2023-02-03T11:00:23.785Z,97702.19
2023-02-03T11:03:06.806Z,97693.41
2023-02-03T11:05:35.221Z,97695.25
2023-02-03T11:08:03.721Z,97679.28
2023-02-03T11:10:35.987Z,97668.84
2023-02-03T11:13:19.372Z,97658.69
2023-02-03T11:15:56.552Z,97657.03
2023-02-03T11:18:46.075Z,97651.25
2023-02-03T11:21:19.121Z,97653.56
2023-02-03T11:23:55.864Z,97659.78
2023-02-03T11:26:27.733Z,97650.38
2023-02-03T11:28:59.492Z,97649.63
2023-02-03T11:31:31.395Z,97646.50
2023-02-03T11:34:02.053Z,97640.13
2023-02-03T11:36:32.590Z,97628.97
2023-02-03T11:39:19.967Z,97624.22
2023-02-03T11:41:48.906Z,97613.13
2023-02-03T11:44:20.869Z,97611.09
2023-02-03T11:46:54.337Z,97610.22
2023-02-03T11:49:50.884Z,97608.19
2023-02-03T11:52:37.697Z,97609.66
2023-02-03T11:55:17.591Z,97607.59
2023-02-03T11:57:54.383Z,97609.38
2023-02-03T12:00:33.664Z,97597.88
2023-02-03T12:03:19.634Z,97581.09
2023-02-03T12:06:03.223Z,97581.16
2023-02-03T12:08:47.485Z,97573.91
2023-02-03T12:11:25.820Z,97569.47
2023-02-03T12:14:07.907Z,97567.88
2023-02-03T12:16:57.248Z,97569.13
2023-02-03T12:19:40.855Z,97571.72
2023-02-03T12:22:17.506Z,97563.31
2023-02-03T12:24:56.219Z,97543.28
2023-02-03T12:27:36.028Z,97537.91
2023-02-03T12:30:10.893Z,97531.94
2023-02-03T12:32:46.446Z,97526.56
2023-02-03T12:35:21.995Z,97515.75
2023-02-03T12:37:56.306Z,97502.13
2023-02-03T12:40:36.195Z,97499.50
2023-02-03T12:43:19.302Z,97491.91
2023-02-03T12:45:54.318Z,97492.28
2023-02-03T12:48:27.350Z,97499.88
2023-02-03T12:51:01.916Z,97497.84
2023-02-03T12:53:35.091Z,97489.00
2023-02-03T12:56:07.863Z,97495.03
2023-02-03T12:58:40.974Z,97484.97
2023-02-03T13:01:15.900Z,97481.13
2023-02-03T13:03:50.161Z,97477.28
2023-02-03T13:06:27.113Z,97462.19
2023-02-03T13:09:02.106Z,97466.75
2023-02-03T13:11:35.132Z,97462.50
2023-02-03T13:14:09.498Z,97450.59
2023-02-03T13:16:41.414Z,97459.00
2023-02-03T13:19:18.125Z,97451.75
2023-02-03T13:21:49.561Z,97449.50
2023-02-03T13:24:18.364Z,97454.88
2023-02-03T13:27:11.099Z,97439.56
2023-02-03T13:30:06.198Z,97427.66
2023-02-03T13:32:55.458Z,97420.19
2023-02-03T13:35:39.511Z,97417.34
2023-02-03T13:38:38.794Z,97406.47
2023-02-03T13:41:12.550Z,97404.41
2023-02-03T13:43:46.624Z,97407.16
2023-02-03T13:46:23.119Z,97409.56
2023-02-03T13:48:52.451Z,97407.16
2023-02-03T13:51:24.127Z,97411.94
2023-02-03T13:54:01.588Z,97403.66
2023-02-03T13:56:30.041Z,97404.56
2023-02-03T13:59:04.038Z,97405.72
2023-02-03T14:01:35.935Z,97408.25
2023-02-03T14:04:05.908Z,97398.94
2023-02-03T14:07:00.019Z,97396.31
2023-02-03T14:09:43.152Z,97403.72
2023-02-03T14:12:20.807Z,97391.78
2023-02-03T14:15:04.761Z,97392.16
2023-02-03T14:18:02.466Z,97386.56
2023-02-03T14:21:21.071Z,97398.84
2023-02-03T14:24:00.000Z,97392.38
2023-02-03T14:26:42.891Z,97394.88
2023-02-03T14:29:24.285Z,97397.84
2023-02-03T14:31:59.265Z,97390.69
2023-02-03T14:34:36.577Z,97386.16
2023-02-03T14:37:26.710Z,97390.72
2023-02-03T14:40:11.568Z,97386.84
2023-02-03T14:43:18.190Z,97393.22
2023-02-03T14:46:13.965Z,97398.56
2023-02-03T14:49:18.793Z,97395.44
2023-02-03T14:52:05.773Z,97393.72
2023-02-03T14:54:59.316Z,97393.28
2023-02-03T14:57:39.627Z,97399.06
2023-02-03T15:00:27.547Z,97402.47
2023-02-03T15:03:27.985Z,97410.75
2023-02-03T15:05:58.451Z,97399.38
2023-02-03T15:08:42.432Z,97407.81
2023-02-03T15:11:32.508Z,97421.91
2023-02-03T15:14:19.966Z,97420.31
2023-02-03T15:16:54.419Z,97416.09
2023-02-03T15:19:25.496Z,97419.88
2023-02-03T15:21:53.880Z,97413.16
2023-02-03T15:24:24.290Z,97406.09
2023-02-03T15:26:54.006Z,97408.94
2023-02-03T15:29:27.129Z,97405.31
2023-02-03T15:32:06.421Z,97400.09
2023-02-03T15:34:40.584Z,97390.41
2023-02-03T15:37:15.465Z,97379.28
2023-02-03T15:39:53.989Z,97371.94
2023-02-03T15:42:28.598Z,97366.03
2023-02-03T15:45:02.362Z,97367.97
2023-02-03T15:47:35.770Z,97371.81
2023-02-03T15:50:16.918Z,97373.16
2023-02-03T15:52:46.914Z,97376.09
2023-02-03T15:55:21.682Z,97386.44
2023-02-03T15:57:51.665Z,97381.53
2023-02-03T16:00:32.118Z,97387.66
2023-02-03T16:03:03.554Z,97394.69
2023-02-03T16:05:33.685Z,97391.19
2023-02-03T16:08:34.985Z,97378.56
2023-02-03T16:11:03.278Z,97384.22
2023-02-03T16:13:33.352Z,97376.84
2023-02-03T16:16:08.291Z,97386.72
2023-02-03T16:18:38.360Z,97391.13
2023-02-03T16:21:07.164Z,97383.97
2023-02-03T16:23:35.239Z,97375.63
2023-02-03T16:26:09.024Z,97377.31
2023-02-03T16:28:54.304Z,97374.56
2023-02-03T16:31:40.335Z,97369.44
2023-02-03T16:34:33.383Z,97363.28
2023-02-03T16:37:19.457Z,97370.66
2023-02-03T16:40:04.892Z,97376.69
2023-02-03T16:42:57.472Z,97386.34
2023-02-03T16:45:43.547Z,97383.59
2023-02-03T16:48:30.564Z,97385.69
2023-02-03T16:51:16.035Z,97396.63
2023-02-03T16:53:45.609Z,97385.47
2023-02-03T16:56:14.396Z,97387.94
2023-02-03T16:58:42.508Z,97397.22
2023-02-03T17:01:11.891Z,97408.13
2023-02-03T17:03:40.273Z,97421.97
2023-02-03T17:06:11.638Z,97420.16
2023-02-03T17:08:41.252Z,97421.38
2023-02-03T17:11:12.715Z,97422.25
2023-02-03T17:13:40.740Z,97424.63
2023-02-03T17:16:11.614Z,97422.25
2023-02-03T17:18:40.576Z,97419.84
2023-02-03T17:21:12.558Z,97413.03
2023-02-03T17:23:41.224Z,97413.47
2023-02-03T17:26:09.517Z,97422.72
2023-02-03T17:28:39.879Z,97421.56
2023-02-03T17:31:08.788Z,97432.06
2023-02-03T17:33:36.964Z,97431.88
2023-02-03T17:36:07.544Z,97430.47
2023-02-03T17:55:17.032Z,97457.38
2023-02-03T17:57:44.994Z,97461.22
2023-02-03T18:00:13.816Z,97461.03
2023-02-03T18:02:42.679Z,97459.03
2023-02-03T18:05:11.017Z,97473.66
2023-02-03T18:07:39.026Z,97472.28
2023-02-03T18:10:07.432Z,97470.88
2023-02-03T18:12:36.821Z,97468.09
2023-02-03T18:15:05.082Z,97471.72
2023-02-03T18:17:33.082Z,97480.53
2023-02-03T18:20:02.544Z,97486.63
2023-02-03T18:22:30.634Z,97488.63
2023-02-03T18:24:58.824Z,97497.47
2023-02-03T18:27:26.863Z,97510.06
2023-02-03T18:29:56.315Z,97504.88
2023-02-03T18:32:24.296Z,97514.28
2023-02-03T18:34:52.613Z,97503.84
2023-02-03T18:37:20.614Z,97494.06
2023-02-03T18:39:49.222Z,97510.50
2023-02-03T18:42:17.354Z,97502.66
2023-02-03T18:44:45.378Z,97505.88
2023-02-03T18:47:14.772Z,97499.84
2023-02-03T18:49:42.869Z,97501.06
2023-02-03T18:52:10.945Z,97513.91
2023-02-03T18:54:39.003Z,97522.69
2023-02-03T18:57:06.950Z,97525.50
2023-02-03T18:59:35.160Z,97538.34
2023-02-03T19:02:03.227Z,97533.56
2023-02-03T19:04:32.823Z,97526.94
2023-02-03T19:07:01.068Z,97529.97
2023-02-03T19:09:29.115Z,97525.56
2023-02-03T19:11:58.876Z,97507.28
2023-02-03T19:14:28.458Z,97504.25
2023-02-03T19:16:56.544Z,97490.13
2023-02-03T19:19:24.580Z,97478.66
2023-02-03T19:21:54.018Z,97469.84
2023-02-03T19:24:22.036Z,97476.44
2023-02-03T19:26:50.067Z,97461.22
2023-02-03T19:29:18.221Z,97450.00
2023-02-03T19:31:46.397Z,97451.78
2023-02-03T19:34:15.979Z,97441.19
2023-02-03T19:36:44.270Z,97451.03
2023-02-03T19:39:13.893Z,97446.84
2023-02-03T19:41:42.199Z,97454.94
2023-02-03T19:44:10.309Z,97457.78
2023-02-03T19:46:38.907Z,97451.81
2023-02-03T19:49:10.998Z,97459.03
2023-02-03T19:51:39.462Z,97458.84
2023-02-03T19:54:07.592Z,97452.19
2023-02-03T19:56:36.954Z,97448.38
2023-02-03T19:59:05.383Z,97459.97
2023-02-03T20:01:33.688Z,97455.34
2023-02-03T20:04:02.022Z,97455.34
2023-02-03T20:06:31.680Z,97451.16
2023-02-03T20:09:00.282Z,97448.16
2023-02-03T20:11:29.216Z,97444.84
2023-02-03T20:13:58.665Z,97449.09
2023-02-03T20:16:26.717Z,97449.53
2023-02-03T20:18:54.752Z,97451.59
2023-02-03T20:21:22.798Z,97456.59
2023-02-03T20:23:50.862Z,97456.81
2023-02-03T20:26:18.959Z,97452.00
2023-02-03T20:28:47.631Z,97456.44
2023-02-03T20:31:17.152Z,97461.25
2023-02-03T20:33:45.228Z,97460.84
2023-02-03T20:36:13.481Z,97463.28
2023-02-03T20:38:41.444Z,97464.50
2023-02-03T20:41:12.469Z,97467.34
2023-02-03T20:43:40.478Z,97471.34
2023-02-03T20:46:12.041Z,97484.56
2023-02-03T20:48:41.735Z,97477.50
2023-02-03T20:51:12.712Z,97472.69
2023-02-03T20:53:41.526Z,97479.25
2023-02-03T20:56:14.914Z,97480.03
2023-02-03T20:58:44.370Z,97482.84
2023-02-03T21:01:15.649Z,97480.03
2023-02-03T21:04:02.729Z,97469.22
2023-02-03T21:06:32.368Z,97476.63
2023-02-03T21:09:09.328Z,97487.44
2023-02-03T21:11:37.431Z,97491.66
2023-02-03T21:14:17.478Z,97490.50
2023-02-03T21:16:47.728Z,97500.53
2023-02-03T21:19:26.991Z,97498.59
2023-02-03T21:21:55.038Z,97504.19
2023-02-03T21:24:29.156Z,97501.78
2023-02-03T21:26:57.672Z,97510.59
2023-02-03T21:29:27.811Z,97516.16
2023-02-03T21:31:56.416Z,97510.38
2023-02-03T21:34:31.798Z,97510.31
2023-02-03T21:37:15.461Z,97499.50
2023-02-03T21:39:43.488Z,97496.53
2023-02-03T21:42:42.719Z,97491.59
2023-02-03T21:45:36.794Z,97478.38
2023-02-03T21:48:28.335Z,97479.78
2023-02-03T21:51:00.872Z,97488.19
2023-02-03T21:53:35.217Z,97487.81
2023-02-03T21:56:18.207Z,97483.41
2023-02-03T21:58:48.714Z,97475.81
2023-02-03T22:01:20.189Z,97482.19
2023-02-03T22:03:51.479Z,97479.41
2023-02-03T22:06:27.090Z,97482.19
2023-02-03T22:08:56.482Z,97484.59
2023-02-03T22:11:26.251Z,97492.59
2023-02-03T22:13:54.354Z,97492.59
2023-02-03T22:16:22.727Z,97487.41
2023-02-03T22:18:54.009Z,97494.00
2023-02-03T22:21:22.498Z,97496.41
2023-02-03T22:23:51.930Z,97506.41
2023-02-03T22:26:20.646Z,97519.00
2023-02-03T22:28:48.622Z,97520.81
2023-02-03T22:31:16.754Z,97511.59
2023-02-03T22:33:45.314Z,97523.78
2023-02-03T22:36:14.526Z,97524.56
2023-02-03T22:38:43.533Z,97521.59
2023-02-03T22:41:13.384Z,97522.34
2023-02-03T22:43:41.869Z,97527.69
2023-02-03T22:46:10.251Z,97523.09
2023-02-03T22:48:38.343Z,97524.50
2023-02-03T22:51:06.478Z,97523.72
2023-02-03T22:53:34.891Z,97528.53
2023-02-03T22:56:03.250Z,97526.06
2023-02-03T22:58:32.686Z,97537.13
2023-02-03T23:01:00.692Z,97542.84
2023-02-03T23:03:32.150Z,97545.38
2023-02-03T23:06:00.477Z,97538.56
2023-02-03T23:08:28.605Z,97552.88
2023-02-03T23:10:57.067Z,97558.06
2023-02-03T23:13:25.110Z,97550.91
2023-02-03T23:15:54.725Z,97548.53
2023-02-03T23:18:22.789Z,97543.78
2023-02-03T23:20:50.768Z,97543.00
2023-02-03T23:23:18.744Z,97535.03
2023-02-03T23:25:46.754Z,97549.88
2023-02-03T23:28:14.750Z,97545.56
2023-02-03T23:30:42.821Z,97545.94
2023-02-03T23:33:12.330Z,97538.16
2023-02-03T23:35:45.469Z,97535.56
2023-02-03T23:38:13.622Z,97524.59
2023-02-03T23:40:41.684Z,97522.44
2023-02-03T23:43:09.772Z,97517.47
2023-02-03T23:45:37.729Z,97512.53
2023-02-03T23:48:06.292Z,97505.78
2023-02-03T23:50:35.690Z,97496.78
2023-02-03T23:53:03.689Z,97499.97
2023-02-03T23:55:31.908Z,97507.78
2023-02-03T23:57:59.974Z,97509.38
